createdAt,value
2019-05-30T03:48:09.705Z,18.35
2019-05-30T03:50:41.309Z,18.90
2019-05-30T03:53:11.596Z,18.10
2019-05-30T03:55:42.089Z,19.25
2019-05-30T03:58:19.386Z,19.17
2019-05-30T04:00:51.270Z,16.85
2019-05-30T04:03:34.632Z,18.27
2019-05-30T04:06:07.254Z,15.58
2019-05-30T04:08:38.164Z,17.15
2019-05-30T04:11:11.708Z,16.50
2019-05-30T04:13:42.944Z,16.65
2019-05-30T04:16:13.415Z,17.42
2019-05-30T04:18:41.569Z,16.20
2019-05-30T04:21:11.463Z,15.48
2019-05-30T04:23:40.222Z,13.90
2019-05-30T04:26:09.694Z,13.35
2019-05-30T04:28:38.614Z,12.47
2019-05-30T04:31:08.062Z,14.75
2019-05-30T04:33:36.617Z,12.25
2019-05-30T04:36:05.193Z,13.60
2019-05-30T04:38:33.707Z,13.38
2019-05-30T04:41:03.295Z,14.65
2019-05-30T04:43:31.888Z,14.93
2019-05-30T04:46:00.317Z,13.00
2019-05-30T04:48:28.822Z,13.28
2019-05-30T04:50:57.312Z,13.60
2019-05-30T04:53:25.746Z,12.63
2019-05-30T04:55:54.172Z,12.45
2019-05-30T04:58:24.317Z,12.28
2019-05-30T05:00:52.784Z,12.82
2019-05-30T05:03:43.410Z,12.78
2019-05-30T05:05:51.380Z,13.48
2019-05-30T05:08:19.927Z,12.70
2019-05-30T05:10:48.548Z,13.43
2019-05-30T05:13:18.243Z,12.60
2019-05-30T05:15:46.907Z,13.43
2019-05-30T05:18:16.809Z,13.20
2019-05-30T05:20:45.548Z,12.98
2019-05-30T05:23:15.622Z,13.20
2019-05-30T05:25:57.762Z,13.10
2019-05-30T05:28:14.283Z,13.08
2019-05-30T05:30:42.840Z,13.20
2019-05-30T05:33:11.408Z,12.18
2019-05-30T05:35:39.984Z,13.35
2019-05-30T05:38:08.409Z,12.35
2019-05-30T05:40:36.834Z,12.93
2019-05-30T05:43:05.344Z,13.53
2019-05-30T05:45:33.780Z,13.62
2019-05-30T05:48:02.241Z,12.30
2019-05-30T05:50:32.184Z,12.37
2019-05-30T05:53:00.696Z,13.28
2019-05-30T05:55:29.239Z,15.30
2019-05-30T05:57:57.736Z,13.03
2019-05-30T06:00:26.181Z,14.07
2019-05-30T06:02:54.623Z,15.65
2019-05-30T06:05:24.327Z,16.15
2019-05-30T06:07:52.867Z,14.60
2019-05-30T06:10:21.818Z,14.87
2019-05-30T06:12:50.367Z,16.02
2019-05-30T06:15:18.895Z,15.30
2019-05-30T06:17:47.346Z,15.70
2019-05-30T06:20:17.438Z,15.15
2019-05-30T06:22:46.027Z,14.18
2019-05-30T06:25:14.810Z,15.37
2019-05-30T06:27:43.244Z,15.47
2019-05-30T06:30:12.123Z,15.60
2019-05-30T06:32:40.564Z,16.67
2019-05-30T06:35:09.435Z,15.40
2019-05-30T06:37:37.876Z,15.10
2019-05-30T06:40:07.258Z,16.40
2019-05-30T06:42:36.582Z,16.80
2019-05-30T06:45:09.639Z,15.83
2019-05-30T06:47:38.125Z,17.30
2019-05-30T06:50:08.045Z,15.90
2019-05-30T06:52:36.503Z,16.77
2019-05-30T06:55:06.216Z,15.67
2019-05-30T06:57:34.700Z,15.67
2019-05-30T07:00:04.912Z,17.33
2019-05-30T07:02:33.696Z,17.13
2019-05-30T07:05:02.806Z,19.23
2019-05-30T07:07:33.349Z,16.10
2019-05-30T07:10:02.007Z,17.70
2019-05-30T07:12:31.157Z,18.67
2019-05-30T07:14:59.729Z,19.83
2019-05-30T07:17:29.429Z,17.60
2019-05-30T07:19:58.092Z,18.77
2019-05-30T07:22:27.641Z,19.77
2019-05-30T07:24:56.263Z,18.13
2019-05-30T07:27:26.048Z,19.63
2019-05-30T07:29:54.708Z,19.63
2019-05-30T07:32:24.021Z,19.67
2019-05-30T07:35:06.047Z,21.27
2019-05-30T07:37:24.528Z,20.13
2019-05-30T07:39:53.219Z,19.57
2019-05-30T07:42:21.687Z,21.27
2019-05-30T07:44:50.139Z,20.10
2019-05-30T07:47:18.575Z,19.90
2019-05-30T07:49:47.020Z,21.90
2019-05-30T07:52:15.452Z,22.67
2019-05-30T07:54:43.916Z,21.47
2019-05-30T07:57:12.361Z,19.83
2019-05-30T07:59:40.874Z,21.67
2019-05-30T08:02:09.300Z,22.00
2019-05-30T08:04:37.873Z,19.80
2019-05-30T08:07:07.592Z,20.80
2019-05-30T08:09:36.132Z,17.50
2019-05-30T08:12:04.731Z,19.37
2019-05-30T08:14:33.350Z,17.23
2019-05-30T08:17:01.817Z,16.77
2019-05-30T08:19:30.245Z,16.57
2019-05-30T08:21:58.748Z,18.03
2019-05-30T08:24:28.156Z,17.57
2019-05-30T08:26:56.704Z,18.13
2019-05-30T08:29:25.124Z,16.93
2019-05-30T08:31:53.564Z,19.20
2019-05-30T08:34:22.052Z,19.30
2019-05-30T08:36:50.492Z,18.13
2019-05-30T08:39:19.056Z,18.50
2019-05-30T08:41:47.509Z,17.43
2019-05-30T08:44:16.091Z,17.10
2019-05-30T08:46:44.560Z,16.90
2019-05-30T08:49:13.036Z,17.83
2019-05-30T08:51:41.474Z,16.80
2019-05-30T08:54:13.499Z,15.30
2019-05-30T08:56:40.716Z,15.03
2019-05-30T08:59:10.938Z,16.00
2019-05-30T09:01:40.491Z,14.70
2019-05-30T09:04:09.795Z,14.07
2019-05-30T09:06:39.948Z,14.37
2019-05-30T09:09:08.554Z,14.40
2019-05-30T09:11:37.715Z,13.70
2019-05-30T09:14:07.231Z,11.93
2019-05-30T09:16:35.676Z,11.63
2019-05-30T09:19:04.299Z,12.00
2019-05-30T09:21:32.746Z,12.03
2019-05-30T09:24:01.636Z,11.33
2019-05-30T09:26:30.355Z,11.07
2019-05-30T09:28:58.786Z,11.20
2019-05-30T09:31:27.227Z,12.07
2019-05-30T09:33:55.664Z,11.37
2019-05-30T09:36:24.109Z,11.00
2019-05-30T09:38:52.533Z,11.50
2019-05-30T09:41:20.975Z,12.07
2019-05-30T09:43:50.239Z,11.43
2019-05-30T09:46:18.963Z,12.17
2019-05-30T09:48:48.628Z,12.03
2019-05-30T09:51:17.256Z,10.87
2019-05-30T09:53:46.012Z,9.50
2019-05-30T09:56:14.525Z,9.27
2019-05-30T09:58:44.000Z,10.03
2019-05-30T10:01:12.716Z,11.13
2019-05-30T10:03:42.004Z,9.03
2019-05-30T10:06:11.316Z,9.40
2019-05-30T10:08:39.960Z,8.40
2019-05-30T10:11:09.016Z,8.67
2019-05-30T10:13:37.530Z,8.10
2019-05-30T10:16:06.624Z,7.77
2019-05-30T10:18:35.164Z,7.47
2019-05-30T10:21:04.820Z,6.70
2019-05-30T10:23:33.285Z,7.60
2019-05-30T10:26:01.818Z,6.20
2019-05-30T10:28:30.775Z,6.67
2019-05-30T10:30:59.643Z,7.30
2019-05-30T10:33:29.275Z,6.30
2019-05-30T10:35:57.889Z,7.40
2019-05-30T10:38:26.396Z,7.27
2019-05-30T10:40:56.014Z,6.80
2019-05-30T10:43:24.572Z,5.77
2019-05-30T10:45:53.406Z,6.10
2019-05-30T10:48:22.067Z,5.47
2019-05-30T10:50:50.695Z,5.73
2019-05-30T10:53:19.194Z,6.30
2019-05-30T10:55:48.262Z,5.20
2019-05-30T10:58:16.800Z,5.00
2019-05-30T11:00:48.920Z,4.67
2019-05-30T11:03:20.057Z,3.03
2019-05-30T11:05:52.820Z,5.10
2019-05-30T11:08:27.673Z,4.33
2019-05-30T11:10:56.827Z,4.37
2019-05-30T11:13:25.384Z,4.47
2019-05-30T11:15:55.294Z,2.87
2019-05-30T11:18:24.148Z,3.80
2019-05-30T11:20:54.031Z,7.17
2019-05-30T11:23:22.730Z,4.70
2019-05-30T11:25:52.473Z,3.60
2019-05-30T11:28:21.157Z,4.13
2019-05-30T11:30:50.614Z,3.50
2019-05-30T11:33:19.444Z,5.53
2019-05-30T11:35:48.888Z,4.87
2019-05-30T11:38:19.132Z,4.57
2019-05-30T11:40:49.298Z,4.50
2019-05-30T11:43:17.906Z,4.90
2019-05-30T11:45:46.418Z,3.43
2019-05-30T11:48:14.904Z,4.30
2019-05-30T11:50:43.435Z,4.10
2019-05-30T11:53:11.889Z,3.10
2019-05-30T11:55:43.407Z,6.93
2019-05-30T11:58:11.945Z,2.97
2019-05-30T12:00:40.386Z,2.40
2019-05-30T12:03:08.861Z,2.10
2019-05-30T12:05:37.358Z,2.50
2019-05-30T12:08:05.962Z,1.90
2019-05-30T12:10:34.645Z,1.70
2019-05-30T12:13:03.208Z,1.77
2019-05-30T12:15:31.906Z,2.17
2019-05-30T12:18:02.213Z,2.20
2019-05-30T12:20:30.659Z,2.23
2019-05-30T12:23:00.025Z,2.30
2019-05-30T12:25:28.567Z,2.20
2019-05-30T12:27:58.069Z,2.40
2019-05-30T12:30:27.103Z,1.80
2019-05-30T12:32:56.367Z,2.03
2019-05-30T12:35:25.147Z,1.70
2019-05-30T12:37:58.957Z,2.00
2019-05-30T12:40:24.945Z,1.30
2019-05-30T12:42:56.456Z,1.50
2019-05-30T12:45:24.873Z,1.83
2019-05-30T12:47:53.392Z,1.80
2019-05-30T12:50:22.569Z,1.30
2019-05-30T12:52:51.094Z,1.47
2019-05-30T12:55:19.991Z,1.30
2019-05-30T12:57:48.578Z,1.00
2019-05-30T13:00:20.159Z,1.50
2019-05-30T13:02:48.682Z,1.00
2019-05-30T13:05:17.289Z,1.20
2019-05-30T13:07:45.811Z,1.20
2019-05-30T13:10:15.820Z,1.27
2019-05-30T13:12:44.270Z,1.00
2019-05-30T13:15:15.711Z,1.53
2019-05-30T13:17:44.173Z,1.00
2019-05-30T13:20:12.914Z,1.43
2019-05-30T13:22:42.036Z,1.43
2019-05-30T13:25:13.453Z,1.20
2019-05-30T13:27:42.196Z,1.13
2019-05-30T13:30:11.634Z,1.50
2019-05-30T13:32:40.236Z,1.40
2019-05-30T13:35:10.517Z,1.40
2019-05-30T13:37:39.022Z,1.07
2019-05-30T13:40:24.398Z,1.57
2019-05-30T13:42:39.898Z,1.33
2019-05-30T13:45:10.230Z,1.23
2019-05-30T13:47:39.159Z,1.50
2019-05-30T13:50:13.551Z,1.50
2019-05-30T13:52:41.278Z,1.20
2019-05-30T13:55:11.770Z,1.30
2019-05-30T13:57:40.220Z,1.20
2019-05-30T14:00:11.779Z,1.43
2019-05-30T14:02:40.240Z,1.40
2019-05-30T14:05:10.641Z,1.37
2019-05-30T14:07:39.397Z,1.37
2019-05-30T14:10:08.729Z,1.63
2019-05-30T14:12:37.371Z,1.50
2019-05-30T14:15:14.066Z,1.27
2019-05-30T14:17:40.905Z,1.40
2019-05-30T14:20:11.247Z,1.47
2019-05-30T14:22:39.922Z,1.20
2019-05-30T14:25:11.640Z,1.70
2019-05-30T14:27:40.330Z,1.40
2019-05-30T14:30:10.997Z,1.20
2019-05-30T14:32:39.776Z,1.20
2019-05-30T14:35:10.670Z,1.20
2019-05-30T14:37:39.490Z,1.37
2019-05-30T14:40:11.084Z,1.37
2019-05-30T14:42:39.956Z,1.30
2019-05-30T14:45:10.683Z,1.40
2019-05-30T14:47:39.220Z,1.40
2019-05-30T14:50:09.249Z,1.37
2019-05-30T14:52:37.879Z,1.23
2019-05-30T14:55:07.371Z,1.40
2019-05-30T14:57:35.943Z,1.30
2019-05-30T15:00:13.670Z,1.47
2019-05-30T15:02:42.942Z,1.27
2019-05-30T15:05:13.309Z,1.17
2019-05-30T15:07:42.516Z,1.50
2019-05-30T15:10:12.782Z,1.57
2019-05-30T15:12:41.428Z,1.47
2019-05-30T15:15:14.201Z,1.50
2019-05-30T15:17:40.822Z,1.57
2019-05-30T15:20:12.121Z,1.40
2019-05-30T15:22:40.878Z,1.60
2019-05-30T15:25:10.007Z,1.30
2019-05-30T15:27:38.880Z,1.53
2019-05-30T15:30:12.606Z,1.40
2019-05-30T15:32:41.515Z,1.40
2019-05-30T15:35:12.839Z,1.70
2019-05-30T15:37:41.366Z,1.60
2019-05-30T15:40:11.004Z,1.30
2019-05-30T15:42:39.579Z,1.33
2019-05-30T15:45:11.742Z,1.47
2019-05-30T15:47:40.496Z,1.60
2019-05-30T15:50:11.471Z,1.60
2019-05-30T15:52:40.107Z,1.50
2019-05-30T15:55:09.414Z,1.40
2019-05-30T15:57:38.021Z,1.47
2019-05-30T16:00:12.312Z,1.30
2019-05-30T16:02:41.080Z,1.77
2019-05-30T16:05:10.660Z,1.43
2019-05-30T16:07:39.341Z,1.30
2019-05-30T16:10:10.877Z,1.30
2019-05-30T16:12:39.684Z,1.60
2019-05-30T16:15:09.071Z,1.30
2019-05-30T16:17:37.555Z,1.60
2019-05-30T16:20:06.821Z,1.37
2019-05-30T16:22:35.439Z,1.23
2019-05-30T16:25:05.927Z,1.30
2019-05-30T16:27:34.507Z,1.47
2019-05-30T16:30:03.694Z,1.40
2019-05-30T16:32:32.299Z,1.60
2019-05-30T16:35:00.731Z,1.50
2019-05-30T16:37:29.206Z,1.50
2019-05-30T16:40:05.943Z,1.33
2019-05-30T16:42:27.865Z,1.27
2019-05-30T16:44:56.490Z,1.30
2019-05-30T16:47:25.103Z,1.60
2019-05-30T16:49:53.712Z,1.30
2019-05-30T16:52:23.155Z,1.30
2019-05-30T16:54:51.897Z,1.70
2019-05-30T16:57:20.781Z,1.33
2019-05-30T16:59:49.347Z,1.30
2019-05-30T17:02:18.826Z,1.17
2019-05-30T17:04:47.375Z,1.60
2019-05-30T17:07:16.911Z,1.17
2019-05-30T17:09:45.564Z,1.30
2019-05-30T17:12:13.985Z,1.60
2019-05-30T17:14:42.419Z,1.73
2019-05-30T17:17:10.880Z,1.70
2019-05-30T17:19:39.689Z,1.60
2019-05-30T17:22:08.304Z,2.10
2019-05-30T17:24:36.728Z,1.93
2019-05-30T17:27:05.296Z,1.57
2019-05-30T17:29:33.721Z,1.87
2019-05-30T17:32:02.145Z,1.67
2019-05-30T17:34:30.573Z,1.40
2019-05-30T17:36:59.001Z,1.40
2019-05-30T17:39:28.887Z,1.50
2019-05-30T17:41:57.506Z,1.77
2019-05-30T17:44:27.112Z,1.67
2019-05-30T17:46:55.708Z,1.70
2019-05-30T17:49:24.136Z,1.80
2019-05-30T17:51:52.827Z,1.47
2019-05-30T17:54:21.756Z,1.90
2019-05-30T17:56:50.387Z,1.70
2019-05-30T17:59:20.068Z,1.90
2019-05-30T18:01:48.726Z,1.70
2019-05-30T18:04:17.208Z,1.60
2019-05-30T18:06:45.627Z,1.77
2019-05-30T18:09:14.060Z,1.73
2019-05-30T18:11:42.500Z,1.57
2019-05-30T18:14:10.959Z,1.77
2019-05-30T18:16:39.407Z,1.73
2019-05-30T18:19:07.850Z,1.90
2019-05-30T18:21:36.290Z,1.90
2019-05-30T18:24:05.179Z,1.77
2019-05-30T18:26:33.604Z,2.53
2019-05-30T18:29:02.150Z,2.20
2019-05-30T18:31:30.584Z,1.83
2019-05-30T18:33:59.102Z,2.10
2019-05-30T18:36:28.388Z,2.80
2019-05-30T18:38:57.755Z,2.20
2019-05-30T18:41:26.632Z,1.80
2019-05-30T18:43:55.185Z,1.93
2019-05-30T18:46:25.043Z,1.60
2019-05-30T18:48:53.541Z,2.33
2019-05-30T18:51:22.051Z,1.90
2019-05-30T18:53:50.791Z,1.90
2019-05-30T18:56:19.432Z,1.83
2019-05-30T18:58:47.960Z,1.53
2019-05-30T19:01:16.503Z,2.13
2019-05-30T19:03:44.955Z,2.73
2019-05-30T19:06:13.494Z,2.17
2019-05-30T19:08:42.103Z,2.20
2019-05-30T19:11:26.334Z,2.30
2019-05-30T19:13:40.792Z,2.13
2019-05-30T19:16:10.911Z,4.60
2019-05-30T19:18:39.537Z,7.67
2019-05-30T19:21:08.088Z,7.30
2019-05-30T19:23:39.605Z,7.50
2019-05-30T19:26:06.797Z,3.80
2019-05-30T19:28:35.226Z,3.67
2019-05-30T19:31:03.762Z,4.30
2019-05-30T19:33:32.882Z,8.13
2019-05-30T19:36:01.531Z,19.00
2019-05-30T19:38:31.178Z,35.57
2019-05-30T19:40:59.838Z,32.60
2019-05-30T19:43:29.855Z,21.33
2019-05-30T19:45:58.598Z,23.77
2019-05-30T19:48:28.201Z,28.97
2019-05-30T19:50:56.888Z,8.60
2019-05-30T19:53:25.387Z,6.70
2019-05-30T19:55:53.876Z,9.70
2019-05-30T19:58:22.642Z,6.20
2019-05-30T20:00:58.497Z,4.70
2019-05-30T20:03:35.641Z,5.13
2019-05-30T20:05:53.945Z,4.80
2019-05-30T20:08:22.472Z,3.87
2019-05-30T20:10:50.934Z,3.30
2019-05-30T20:13:19.432Z,3.07
2019-05-30T20:15:47.895Z,2.90
2019-05-30T20:18:16.372Z,2.80
2019-05-30T20:20:56.757Z,3.27
2019-05-30T20:23:15.440Z,2.27
2019-05-30T20:25:46.033Z,2.30
2019-05-30T20:28:14.118Z,3.50
2019-05-30T20:30:43.293Z,4.03
2019-05-30T20:33:11.947Z,4.33
2019-05-30T20:35:41.675Z,4.30
2019-05-30T20:38:10.811Z,4.10
2019-05-30T20:40:40.925Z,5.00
2019-05-30T20:43:09.647Z,3.97
2019-05-30T20:45:44.666Z,3.30
2019-05-30T20:48:08.375Z,3.67
2019-05-30T20:50:37.131Z,4.50
2019-05-30T20:53:05.706Z,3.10
2019-05-30T20:55:34.209Z,3.10
2019-05-30T20:58:02.656Z,2.53
2019-05-30T21:00:36.096Z,3.00
2019-05-30T21:03:04.873Z,3.07
2019-05-30T21:05:33.299Z,3.27
2019-05-30T21:08:05.862Z,4.00
2019-05-30T21:10:34.975Z,2.27
2019-05-30T21:13:04.528Z,2.80
2019-05-30T21:15:35.243Z,2.30
2019-05-30T21:18:05.527Z,3.03
2019-05-30T21:20:34.101Z,3.63
2019-05-30T21:23:02.536Z,5.23
2019-05-30T21:25:31.021Z,5.63
2019-05-30T21:27:59.490Z,3.97
2019-05-30T21:30:28.046Z,3.47
2019-05-30T21:32:56.590Z,4.13
2019-05-30T21:35:25.432Z,3.70
2019-05-30T21:37:53.974Z,3.40
2019-05-30T21:40:22.402Z,6.37
2019-05-30T21:43:04.722Z,9.03
2019-05-30T21:45:21.011Z,6.60
2019-05-30T21:47:49.457Z,4.50
2019-05-30T21:50:18.393Z,2.70
2019-05-30T21:52:48.011Z,2.63
2019-05-30T21:55:16.804Z,3.37
2019-05-30T21:57:46.045Z,3.03
2019-05-30T22:00:18.874Z,3.17
2019-05-30T22:02:54.344Z,3.10
2019-05-30T22:05:23.910Z,2.67
2019-05-30T22:07:52.354Z,2.63
2019-05-30T22:10:20.852Z,2.47
2019-05-30T22:12:49.702Z,2.83
2019-05-30T22:15:18.579Z,2.60
2019-05-30T22:17:47.916Z,2.60
2019-05-30T22:20:16.756Z,3.03
2019-05-30T22:22:46.119Z,2.60
2019-05-30T22:25:14.878Z,2.50
2019-05-30T22:27:44.477Z,2.67
2019-05-30T22:30:13.415Z,2.43
2019-05-30T22:32:42.630Z,2.10
2019-05-30T22:35:11.450Z,2.50
2019-05-30T22:37:40.044Z,2.70
2019-05-30T22:40:08.828Z,2.70
2019-05-30T22:42:37.248Z,2.17
2019-05-30T22:45:07.480Z,2.17
2019-05-30T22:47:35.901Z,2.30
2019-05-30T22:50:07.045Z,2.20
2019-05-30T22:52:35.474Z,2.17
2019-05-30T22:55:04.599Z,2.27
2019-05-30T22:57:33.028Z,2.77
2019-05-30T23:00:01.497Z,2.30
